Arlington, Colorado
Current Conditions -  °F | °C
As of 1:53 AM on Saturday 25 Oct 2014 (Local Time) from KLHX Reporting Station
Clear Clear  
Wind Chill:   Ceiling: Unl
Heat Index:   Visibility: 10mi
Dew Point:   Wind: 12mph
Humidity: 59%   Direction: 270°W
Pressure: 30.14"   Gusts: NA
Location:  38.34°N, 103.34°W
Report Text: KLHX 250753Z AUTO 27010KT 10SM CLR 09/02 A3014 RMK AO2 SLP158 T00940017
Loading
Personal Weather Stations






























Interactive Weather Map
Tropical Storm Tracking
New forecast layout! Learn more

10-Day Weather Forecast

Advertisements
Track Severe Weather on mobile